createdAt,value
2018-07-08T00:07:01.917Z,13.8
2018-07-08T00:17:01.316Z,13.74
2018-07-08T00:27:01.403Z,13.69
2018-07-08T00:37:01.326Z,13.46
2018-07-08T00:47:01.301Z,13.43
2018-07-08T00:57:01.391Z,13.21
2018-07-08T01:07:01.318Z,13.14
2018-07-08T01:17:01.431Z,12.95
2018-07-08T01:27:01.360Z,12.84
2018-07-08T01:37:01.400Z,12.78
2018-07-08T01:47:01.372Z,12.39
2018-07-08T01:57:01.421Z,12.29
2018-07-08T02:07:01.487Z,12.24
2018-07-08T02:17:01.436Z,12.2
2018-07-08T02:27:01.404Z,12.11
2018-07-08T02:37:01.510Z,12.09
2018-07-08T02:47:01.421Z,12.12
2018-07-08T02:57:01.496Z,12.16
2018-07-08T03:07:01.441Z,12.19
2018-07-08T03:17:01.557Z,12.13
2018-07-08T03:27:02.513Z,12.02
2018-07-08T03:37:01.446Z,12.01
2018-07-08T03:47:01.521Z,11.99
2018-07-08T03:57:01.445Z,12.26
2018-07-08T04:07:01.530Z,12.3
2018-07-08T04:17:01.598Z,12.27
2018-07-08T04:27:01.532Z,12.44
2018-07-08T04:37:01.555Z,12.54
2018-07-08T04:47:01.576Z,12.92
2018-07-08T04:57:01.566Z,13.32
2018-07-08T05:07:01.642Z,13.74
2018-07-08T05:23:28.789Z,14.32
2018-07-08T05:27:01.511Z,14.81
2018-07-08T05:37:01.586Z,15.3
2018-07-08T05:47:01.641Z,15.78
2018-07-08T05:57:01.623Z,16.5
2018-07-08T06:07:01.685Z,19.47
2018-07-08T06:17:01.683Z,24.22
2018-07-08T06:27:01.722Z,26.27
2018-07-08T06:37:01.778Z,27.64
2018-07-08T06:47:01.611Z,28.56
2018-07-08T06:57:01.725Z,30.34
2018-07-08T07:07:01.630Z,31.2
2018-07-08T07:17:01.640Z,31.21
2018-07-08T07:27:01.659Z,30.91
2018-07-08T07:37:01.664Z,31.88
2018-07-08T07:47:01.803Z,32.92
2018-07-08T07:57:01.681Z,33.67
2018-07-08T08:07:01.730Z,34.53
2018-07-08T08:17:01.663Z,34.84
2018-07-08T08:27:01.720Z,34.81
2018-07-08T08:37:02.170Z,35.3
2018-07-08T08:47:01.993Z,35.17
2018-07-08T08:57:01.732Z,34.04
2018-07-08T09:07:01.767Z,34.51
2018-07-08T09:17:01.668Z,31.61
2018-07-08T09:27:01.670Z,27.09
2018-07-08T09:37:01.738Z,25.34
2018-07-08T09:47:01.715Z,24.16
2018-07-08T09:57:01.773Z,24.19
2018-07-08T10:07:01.752Z,23.55
2018-07-08T10:17:01.688Z,23.94
2018-07-08T10:27:01.737Z,24.29
2018-07-08T10:37:01.734Z,24.39
2018-07-08T10:47:01.780Z,24.07
2018-07-08T10:57:01.803Z,24.14
2018-07-08T11:07:01.694Z,24.45
2018-07-08T11:17:01.808Z,24.35
2018-07-08T11:27:01.713Z,24.49
2018-07-08T11:37:01.794Z,24.75
2018-07-08T11:47:01.730Z,24.91
2018-07-08T11:57:01.703Z,25.19
2018-07-08T12:07:06.369Z,25.02
2018-07-08T12:17:01.717Z,24.9
2018-07-08T12:27:01.790Z,25.47
2018-07-08T12:37:01.698Z,25.52
2018-07-08T12:47:01.741Z,25.39
2018-07-08T12:57:02.027Z,25.61
2018-07-08T13:07:01.744Z,25.62
2018-07-08T13:17:01.759Z,25.64
2018-07-08T13:27:01.784Z,25.49
2018-07-08T13:37:01.767Z,25.52
2018-07-08T13:47:01.842Z,25.59
2018-07-08T13:57:01.761Z,25.74
2018-07-08T14:07:01.927Z,25.94
2018-07-08T14:17:01.906Z,26.06
2018-07-08T14:27:01.716Z,26.01
2018-07-08T14:37:01.868Z,26.12
2018-07-08T14:47:01.763Z,26.01
2018-07-08T14:57:01.800Z,25.97
2018-07-08T15:07:01.787Z,25.94
2018-07-08T15:17:01.764Z,25.99
2018-07-08T15:27:02.805Z,25.98
2018-07-08T15:37:06.639Z,25.91
2018-07-08T15:47:16.014Z,25.91
2018-07-08T15:57:01.815Z,25.93
2018-07-08T16:07:01.786Z,25.9
2018-07-08T16:17:01.871Z,25.98
2018-07-08T16:27:02.043Z,25.94
2018-07-08T16:37:01.862Z,26.01
2018-07-08T16:47:03.103Z,25.74
2018-07-08T16:57:01.835Z,25.71
2018-07-08T17:07:02.484Z,25.57
2018-07-08T17:17:01.994Z,25.3
2018-07-08T17:27:01.836Z,25.22
2018-07-08T17:37:01.776Z,25.06
2018-07-08T17:47:01.796Z,24.82
2018-07-08T17:57:01.772Z,24.56
2018-07-08T18:07:01.833Z,24.38
2018-07-08T18:17:01.924Z,24.17
2018-07-08T18:27:02.264Z,23.86
2018-07-08T18:37:01.889Z,23.72
2018-07-08T18:47:01.856Z,23.42
2018-07-08T18:57:01.840Z,23.07
2018-07-08T19:07:01.986Z,22.74
2018-07-08T19:17:02.715Z,22.44
2018-07-08T19:27:02.350Z,22.12
2018-07-08T19:37:02.121Z,21.57
2018-07-08T19:47:01.845Z,21.38
2018-07-08T19:57:01.823Z,20.95
2018-07-08T20:07:01.956Z,20.74
2018-07-08T20:17:01.812Z,20.38
2018-07-08T20:27:01.819Z,20.09
2018-07-08T20:37:01.950Z,20
2018-07-08T20:47:03.057Z,19.66
2018-07-08T20:57:02.143Z,19.42
2018-07-08T21:07:01.821Z,19.35
2018-07-08T21:17:01.858Z,19.15
2018-07-08T21:27:01.834Z,19.01
2018-07-08T21:37:02.005Z,18.94
2018-07-08T21:47:01.816Z,18.64
2018-07-08T21:57:02.794Z,18.27
2018-07-08T22:07:02.916Z,17.94
2018-07-08T22:17:01.947Z,17.67
2018-07-08T22:27:01.783Z,17.53
2018-07-08T22:37:07.437Z,17.33
2018-07-08T22:47:06.119Z,17.15
2018-07-08T22:57:01.892Z,16.98
2018-07-08T23:07:02.111Z,16.8
2018-07-08T23:17:01.843Z,16.63
2018-07-08T23:27:01.796Z,16.34
2018-07-08T23:37:01.964Z,15.96
2018-07-08T23:47:01.864Z,15.86
2018-07-08T23:57:01.793Z,15.89
